Lizard Point — 3ECO5 — position and weather

sailwx.info

Track history (hours):
 
Tides and Currents Weather Stations Pressure Air Temp Water Temp Dewpoint Dewpoint Depression Visibility Wind Speed Wind Dir Waves Ship Positions

Lizard Point

Last reported at 2017-Dec-04 05:47 UTC. Time now 2017-Dec-12 06:10 UTC.
Position N 34°39' E 031°18'.
Warning: this ship's position is 8 days out of date.

Length 168 m; draft 9.4 m.

Type: Ship. MMSI: 371415000.

Date/timePositionNaut miles runAvg speedWind from/ knotsBaromVisibWave heightAir tempDewpointWater temp
2017-Dec-04 05:47N 34°39' E 031°18'229 5.8
2017-Dec-02 13:57N 36°15' E 027°02'510.4
2017-Dec-02 13:29N 36°14' E 026°56'510.6
2017-Dec-02 13:00N 36°13' E 026°50'510.8
2017-Dec-02 12:30N 36°12' E 026°44'510.6
2017-Dec-02 12:00N 36°12' E 026°37'510.4
2017-Dec-02 11:31N 36°10' E 026°31'510.3
2017-Dec-02 11:00N 36°10' E 026°25'510.2
2017-Dec-02 10:30N 36°09' E 026°18'510.1
2017-Dec-02 10:00N 36°08' E 026°12'510.0
2017-Dec-02 09:30N 36°07' E 026°06'5 9.9
2017-Dec-02 09:00N 36°06' E 026°00'5 9.9
2017-Dec-02 08:31N 36°05' E 025°54'510.3
2017-Dec-02 08:00N 36°04' E 025°48'510.7
2017-Dec-02 07:30N 36°03' E 025°41'510.9
2017-Dec-02 07:00N 36°02' E 025°35'510.9
2017-Dec-02 06:30N 36°01' E 025°28'611.1
2017-Dec-02 06:00N 35°60' E 025°21'611.2
2017-Dec-02 05:30N 35°59' E 025°14'611.2
2017-Dec-02 05:00N 35°58' E 025°08'611.6
2017-Dec-02 04:30N 35°56' E 025°01'611.4
2017-Dec-02 04:00N 35°54' E 024°54'611.5
2017-Dec-02 03:30N 35°53' E 024°47'611.8
2017-Dec-02 03:00N 35°54' E 024°40'611.9
2017-Dec-02 02:31N 35°53' E 024°33'611.7
2017-Dec-02 02:01N 35°52' E 024°26'611.5
2017-Dec-02 01:30N 35°51' E 024°19'611.3
2017-Dec-02 01:00N 35°50' E 024°12'611.4
2017-Dec-02 00:30N 35°50' E 024°05'611.7
2017-Dec-02 00:00N 35°49' E 023°57'612.2
2017-Dec-01 23:30N 35°48' E 023°50'612.0
2017-Dec-01 23:00N 35°47' E 023°43'611.8
2017-Dec-01 22:30N 35°46' E 023°35'39 9.1
2017-Dec-01 18:15N 35°37' E 022°49'3 9.2
2017-Dec-01 17:58N 35°36' E 022°46'56 9.4
2017-Dec-01 12:03N 35°25' E 021°39'2 9.9
2017-Dec-01 11:52N 35°25' E 021°37'336 8.1
2017-Nov-29 18:23N 36°24' E 014°48'512.0
2017-Nov-29 17:59N 36°25' E 014°42'611.8
2017-Nov-29 17:30N 36°26' E 014°35'611.9
2017-Nov-29 17:00N 36°28' E 014°28'612.2
2017-Nov-29 16:31N 36°30' E 014°21'611.5
2017-Nov-29 16:00N 36°31' E 014°14'611.4
2017-Nov-29 15:30N 36°33' E 014°07'611.4
2017-Nov-29 15:00N 36°35' E 014°01'611.4
2017-Nov-29 14:30N 36°38' E 013°54'611.3
2017-Nov-29 13:56N 36°40' E 013°47'  
2017-Nov-26 05:32N 36°01' W 005°11'014.2
2017-Nov-26 05:30N 36°01' W 005°11'612.9
2017-Nov-26 05:00N 36°03' W 005°19'5 9.6
2017-Nov-26 04:30N 36°07' W 005°22'1 1.4
2017-Nov-26 03:58N 36°08' W 005°22'0 0.1
2017-Nov-26 03:28N 36°08' W 005°22'0 0.1
2017-Nov-26 02:58N 36°08' W 005°22'0 0.1
2017-Nov-26 02:28N 36°08' W 005°22'0 0.2
2017-Nov-26 01:58N 36°07' W 005°22'0 0.1
2017-Nov-26 01:25N 36°08' W 005°22'0 0.2
2017-Nov-26 00:58N 36°08' W 005°22'0 0.0
2017-Nov-26 00:28N 36°08' W 005°22'0 0.0
2017-Nov-25 23:52N 36°08' W 005°22'0 0.0
2017-Nov-25 23:10N 36°08' W 005°22'0 0.2
2017-Nov-25 22:58N 36°08' W 005°22'0 0.1
2017-Nov-25 21:37N 36°07' W 005°22'0 0.0
2017-Nov-25 21:28N 36°07' W 005°22'0 0.0
2017-Nov-25 20:58N 36°07' W 005°22'0 0.0
2017-Nov-25 20:28N 36°07' W 005°22'0 0.0
2017-Nov-25 18:52N 36°07' W 005°22'0 0.0
2017-Nov-25 18:28N 36°07' W 005°22'0 0.0
2017-Nov-25 17:58N 36°07' W 005°22'0 0.0
2017-Nov-25 17:25N 36°07' W 005°22'0 0.1
2017-Nov-25 17:00N 36°07' W 005°22'2 4.4
2017-Nov-25 16:30N 36°05' W 005°21'1 1.3
2017-Nov-25 16:01N 36°06' W 005°20'0 0.3
2017-Nov-25 15:31N 36°06' W 005°20'1 2.1
2017-Nov-25 15:01N 36°06' W 005°19'4 8.6
2017-Nov-25 14:31N 36°05' W 005°14'4 7.3
2017-Nov-25 14:01N 36°05' W 005°09'0 0.3
2017-Nov-25 13:30N 36°05' W 005°09'0 0.2
2017-Nov-25 13:01N 36°05' W 005°09'0 0.4
2017-Nov-25 12:30N 36°05' W 005°08'1 0.4
2017-Nov-25 09:09N 36°06' W 005°10'2 6.3
2017-Nov-25 08:50N 36°06' W 005°12'3 6.0
2017-Nov-25 08:17N 36°06' W 005°16'0 1.8
2017-Nov-25 08:00N 36°06' W 005°17'1 1.8
2017-Nov-25 07:30N 36°06' W 005°16'3 4.7
2017-Nov-25 06:58N 36°06' W 005°13'3 6.7
2017-Nov-25 06:30N 36°06' W 005°09'0 0.3
2017-Nov-25 06:01N 36°06' W 005°09'0 0.5
2017-Nov-25 05:30N 36°06' W 005°09'3 3.9
2017-Nov-25 04:49N 36°05' W 005°12'411.3
2017-Nov-25 04:27N 36°02' W 005°16'612.7
2017-Nov-25 04:00N 35°59' W 005°22'612.6
2017-Nov-25 03:30N 35°57' W 005°29'810.5
2017-Nov-25 02:47N 35°55' W 005°39'5310.5
2017-Nov-24 21:41N 35°57' W 006°44'210.9
2017-Nov-24 21:31N 35°57' W 006°47'510.9
2017-Nov-24 21:00N 35°57' W 006°53'611.2
2017-Nov-24 20:31N 35°58' W 007°00'611.3
2017-Nov-24 20:01N 35°58' W 007°07'611.1
2017-Nov-24 19:30N 35°59' W 007°14'611.1
2017-Nov-24 18:56N 35°59' W 007°22'511.4
2017-Nov-24 18:30N 35°60' W 007°28'611.5
2017-Nov-24 18:00N 36°01' W 007°35'611.4
2017-Nov-24 17:30N 36°02' W 007°42'711.4
2017-Nov-24 16:54N 36°02' W 007°50'511.4
2017-Nov-24 16:30N 36°03' W 007°56'611.4
2017-Nov-24 16:01N 36°04' W 008°03'611.5
2017-Nov-24 15:30N 36°04' W 008°10'611.4
2017-Nov-24 15:01N 36°05' W 008°17'611.3
2017-Nov-24 14:31N 36°05' W 008°24'611.2
2017-Nov-24 14:00N 36°06' W 008°31'611.2
2017-Nov-24 13:31N 36°07' W 008°38'611.1
2017-Nov-24 13:00N 36°07' W 008°44'611.2
2017-Nov-24 12:31N 36°08' W 008°51'611.3
2017-Nov-24 12:01N 36°08' W 008°58'611.2
2017-Nov-24 11:30N 36°09' W 009°05'611.5
2017-Nov-24 11:01N 36°09' W 009°12'611.7
2017-Nov-24 10:31N 36°10' W 009°19'611.6
2017-Nov-24 10:01N 36°11' W 009°26'  
Track history (hours):
 
Tides and Currents Weather Stations Pressure Air Temp Water Temp Dewpoint Dewpoint Depression Visibility Wind Speed Wind Dir Waves Ship Positions

Lizard Point

Last reported at 2017-Dec-04 05:47 UTC. Time now 2017-Dec-12 06:10 UTC.
Position N 34°39' E 031°18'.
Warning: this ship's position is 8 days out of date.

Length 168 m; draft 9.4 m.

Type: Ship. MMSI: 371415000.

Date/timePositionNaut miles runAvg speedWind from/ knotsBaromVisibWave heightAir tempDewpointWater temp
2017-Dec-04 05:47N 34°39' E 031°18'229 5.8
2017-Dec-02 13:57N 36°15' E 027°02'510.4
2017-Dec-02 13:29N 36°14' E 026°56'510.6
2017-Dec-02 13:00N 36°13' E 026°50'510.8
2017-Dec-02 12:30N 36°12' E 026°44'510.6
2017-Dec-02 12:00N 36°12' E 026°37'510.4
2017-Dec-02 11:31N 36°10' E 026°31'510.3
2017-Dec-02 11:00N 36°10' E 026°25'510.2
2017-Dec-02 10:30N 36°09' E 026°18'510.1
2017-Dec-02 10:00N 36°08' E 026°12'510.0
2017-Dec-02 09:30N 36°07' E 026°06'5 9.9
2017-Dec-02 09:00N 36°06' E 026°00'5 9.9
2017-Dec-02 08:31N 36°05' E 025°54'510.3
2017-Dec-02 08:00N 36°04' E 025°48'510.7
2017-Dec-02 07:30N 36°03' E 025°41'510.9
2017-Dec-02 07:00N 36°02' E 025°35'510.9
2017-Dec-02 06:30N 36°01' E 025°28'611.1
2017-Dec-02 06:00N 35°60' E 025°21'611.2
2017-Dec-02 05:30N 35°59' E 025°14'611.2
2017-Dec-02 05:00N 35°58' E 025°08'611.6
2017-Dec-02 04:30N 35°56' E 025°01'611.4
2017-Dec-02 04:00N 35°54' E 024°54'611.5
2017-Dec-02 03:30N 35°53' E 024°47'611.8
2017-Dec-02 03:00N 35°54' E 024°40'611.9
2017-Dec-02 02:31N 35°53' E 024°33'611.7
2017-Dec-02 02:01N 35°52' E 024°26'611.5
2017-Dec-02 01:30N 35°51' E 024°19'611.3
2017-Dec-02 01:00N 35°50' E 024°12'611.4
2017-Dec-02 00:30N 35°50' E 024°05'611.7
2017-Dec-02 00:00N 35°49' E 023°57'612.2
2017-Dec-01 23:30N 35°48' E 023°50'612.0
2017-Dec-01 23:00N 35°47' E 023°43'611.8
2017-Dec-01 22:30N 35°46' E 023°35'39 9.1
2017-Dec-01 18:15N 35°37' E 022°49'3 9.2
2017-Dec-01 17:58N 35°36' E 022°46'56 9.4
2017-Dec-01 12:03N 35°25' E 021°39'2 9.9
2017-Dec-01 11:52N 35°25' E 021°37'336 8.1
2017-Nov-29 18:23N 36°24' E 014°48'512.0
2017-Nov-29 17:59N 36°25' E 014°42'611.8
2017-Nov-29 17:30N 36°26' E 014°35'611.9
2017-Nov-29 17:00N 36°28' E 014°28'612.2
2017-Nov-29 16:31N 36°30' E 014°21'611.5
2017-Nov-29 16:00N 36°31' E 014°14'611.4
2017-Nov-29 15:30N 36°33' E 014°07'611.4
2017-Nov-29 15:00N 36°35' E 014°01'611.4
2017-Nov-29 14:30N 36°38' E 013°54'611.3
2017-Nov-29 13:56N 36°40' E 013°47'  
2017-Nov-26 05:32N 36°01' W 005°11'014.2
2017-Nov-26 05:30N 36°01' W 005°11'612.9
2017-Nov-26 05:00N 36°03' W 005°19'5 9.6
2017-Nov-26 04:30N 36°07' W 005°22'1 1.4
2017-Nov-26 03:58N 36°08' W 005°22'0 0.1
2017-Nov-26 03:28N 36°08' W 005°22'0 0.1
2017-Nov-26 02:58N 36°08' W 005°22'0 0.1
2017-Nov-26 02:28N 36°08' W 005°22'0 0.2
2017-Nov-26 01:58N 36°07' W 005°22'0 0.1
2017-Nov-26 01:25N 36°08' W 005°22'0 0.2
2017-Nov-26 00:58N 36°08' W 005°22'0 0.0
2017-Nov-26 00:28N 36°08' W 005°22'0 0.0
2017-Nov-25 23:52N 36°08' W 005°22'0 0.0
2017-Nov-25 23:10N 36°08' W 005°22'0 0.2
2017-Nov-25 22:58N 36°08' W 005°22'0 0.1
2017-Nov-25 21:37N 36°07' W 005°22'0 0.0
2017-Nov-25 21:28N 36°07' W 005°22'0 0.0
2017-Nov-25 20:58N 36°07' W 005°22'0 0.0
2017-Nov-25 20:28N 36°07' W 005°22'0 0.0
2017-Nov-25 18:52N 36°07' W 005°22'0 0.0
2017-Nov-25 18:28N 36°07' W 005°22'0 0.0
2017-Nov-25 17:58N 36°07' W 005°22'0 0.0
2017-Nov-25 17:25N 36°07' W 005°22'0 0.1
2017-Nov-25 17:00N 36°07' W 005°22'2 4.4
2017-Nov-25 16:30N 36°05' W 005°21'1 1.3
2017-Nov-25 16:01N 36°06' W 005°20'0 0.3
2017-Nov-25 15:31N 36°06' W 005°20'1 2.1
2017-Nov-25 15:01N 36°06' W 005°19'4 8.6
2017-Nov-25 14:31N 36°05' W 005°14'4 7.3
2017-Nov-25 14:01N 36°05' W 005°09'0 0.3
2017-Nov-25 13:30N 36°05' W 005°09'0 0.2
2017-Nov-25 13:01N 36°05' W 005°09'0 0.4
2017-Nov-25 12:30N 36°05' W 005°08'1 0.4
2017-Nov-25 09:09N 36°06' W 005°10'2 6.3
2017-Nov-25 08:50N 36°06' W 005°12'3 6.0
2017-Nov-25 08:17N 36°06' W 005°16'0 1.8
2017-Nov-25 08:00N 36°06' W 005°17'1 1.8
2017-Nov-25 07:30N 36°06' W 005°16'3 4.7
2017-Nov-25 06:58N 36°06' W 005°13'3 6.7
2017-Nov-25 06:30N 36°06' W 005°09'0 0.3
2017-Nov-25 06:01N 36°06' W 005°09'0 0.5
2017-Nov-25 05:30N 36°06' W 005°09'3 3.9
2017-Nov-25 04:49N 36°05' W 005°12'411.3
2017-Nov-25 04:27N 36°02' W 005°16'612.7
2017-Nov-25 04:00N 35°59' W 005°22'612.6
2017-Nov-25 03:30N 35°57' W 005°29'810.5
2017-Nov-25 02:47N 35°55' W 005°39'5310.5
2017-Nov-24 21:41N 35°57' W 006°44'210.9
2017-Nov-24 21:31N 35°57' W 006°47'510.9
2017-Nov-24 21:00N 35°57' W 006°53'611.2
2017-Nov-24 20:31N 35°58' W 007°00'611.3
2017-Nov-24 20:01N 35°58' W 007°07'611.1
2017-Nov-24 19:30N 35°59' W 007°14'611.1
2017-Nov-24 18:56N 35°59' W 007°22'511.4
2017-Nov-24 18:30N 35°60' W 007°28'611.5
2017-Nov-24 18:00N 36°01' W 007°35'611.4
2017-Nov-24 17:30N 36°02' W 007°42'711.4
2017-Nov-24 16:54N 36°02' W 007°50'511.4
2017-Nov-24 16:30N 36°03' W 007°56'611.4
2017-Nov-24 16:01N 36°04' W 008°03'611.5
2017-Nov-24 15:30N 36°04' W 008°10'611.4
2017-Nov-24 15:01N 36°05' W 008°17'611.3
2017-Nov-24 14:31N 36°05' W 008°24'611.2
2017-Nov-24 14:00N 36°06' W 008°31'611.2
2017-Nov-24 13:31N 36°07' W 008°38'611.1
2017-Nov-24 13:00N 36°07' W 008°44'611.2
2017-Nov-24 12:31N 36°08' W 008°51'611.3
2017-Nov-24 12:01N 36°08' W 008°58'611.2
2017-Nov-24 11:30N 36°09' W 009°05'611.5
2017-Nov-24 11:01N 36°09' W 009°12'611.7
2017-Nov-24 10:31N 36°10' W 009°19'611.6
2017-Nov-24 10:01N 36°11' W 009°26'  

Dump ship's entire track history